Time;durP1;ratioP1;P1;durP2;ratioP2;P2;SDS_P1;SDS_P2;PMS_P1;PMS_P2;Temp;Humidity;BMP_temperature;BMP_pressure;BME280_temperature;BME280_humidity;BME280_pressure;Samples;Min_cycle;Max_cycle;Signal;HPM_P1;HPM_P2
2024/01/30 00:02:11;;;;;;;38.20;25.00;;;5.90;99.90;;;;;;5135339;27;20482;-78
2024/01/30 00:04:36;;;;;;;38.88;25.33;;;5.90;99.90;;;;;;5135526;27;20130;-78
2024/01/30 00:07:02;;;;;;;39.08;24.95;;;5.90;99.90;;;;;;5135349;27;20115;-78
2024/01/30 00:09:27;;;;;;;44.00;25.15;;;5.90;99.90;;;;;;5135563;27;20051;-78
2024/01/30 00:11:53;;;;;;;39.80;25.02;;;5.90;99.90;;;;;;5135394;27;20591;-78
2024/01/30 00:14:19;;;;;;;42.20;25.50;;;5.90;99.90;;;;;;5135287;27;20050;-78
2024/01/30 00:16:45;;;;;;;41.92;26.73;;;5.90;99.90;;;;;;5135284;27;20047;-78
2024/01/30 00:19:11;;;;;;;39.90;23.90;;;5.90;99.90;;;;;;5135615;27;20046;-78
2024/01/30 00:21:37;;;;;;;40.70;27.25;;;5.90;99.90;;;;;;5136328;27;20082;-78
2024/01/30 00:24:03;;;;;;;41.67;27.25;;;5.80;99.90;;;;;;5136251;27;20086;-78
2024/01/30 00:26:28;;;;;;;38.25;24.85;;;5.90;99.90;;;;;;5135225;27;20035;-78
2024/01/30 00:28:54;;;;;;;41.08;25.75;;;5.80;99.90;;;;;;5134748;27;20509;-78
2024/01/30 00:31:20;;;;;;;35.90;25.52;;;5.90;99.90;;;;;;5135056;27;20039;-78
2024/01/30 00:33:45;;;;;;;39.53;25.17;;;5.80;99.90;;;;;;5134734;27;20572;-78
2024/01/30 00:36:11;;;;;;;43.85;27.20;;;5.80;99.90;;;;;;5135023;27;20073;-78
2024/01/30 00:38:37;;;;;;;47.15;29.23;;;5.90;99.90;;;;;;5135931;27;20050;-78
2024/01/30 00:41:03;;;;;;;41.88;27.23;;;5.80;99.90;;;;;;5134400;27;20047;-78
2024/01/30 00:43:29;;;;;;;48.95;29.63;;;5.80;99.90;;;;;;5134765;27;20126;-78
2024/01/30 00:45:55;;;;;;;53.28;27.38;;;5.90;99.90;;;;;;5134737;27;20055;-78
2024/01/30 00:48:20;;;;;;;42.47;26.65;;;5.90;99.90;;;;;;5134689;27;20036;-78
2024/01/30 00:50:46;;;;;;;42.65;26.75;;;5.90;99.90;;;;;;5134446;27;20489;-78
2024/01/30 00:53:12;;;;;;;47.72;26.50;;;5.90;99.90;;;;;;5134713;27;20054;-78
2024/01/30 00:55:38;;;;;;;40.80;25.77;;;5.90;99.90;;;;;;5134388;27;20718;-78
2024/01/30 00:58:04;;;;;;;45.33;27.65;;;5.90;99.90;;;;;;5134417;27;20043;-78
2024/01/30 01:00:31;;;;;;;44.83;28.48;;;5.90;99.90;;;;;;5133993;27;20051;-78
2024/01/30 01:02:58;;;;;;;45.17;28.67;;;5.90;99.90;;;;;;5134287;27;20122;-78
2024/01/30 01:05:23;;;;;;;44.78;26.55;;;5.90;99.90;;;;;;5134207;27;20085;-78
2024/01/30 01:07:49;;;;;;;45.67;27.00;;;5.80;99.90;;;;;;5134124;27;20123;-79
2024/01/30 01:10:17;;;;;;;44.85;26.67;;;5.80;99.90;;;;;;5133740;27;20073;-78
2024/01/30 01:12:42;;;;;;;40.97;25.35;;;5.90;99.90;;;;;;5133990;27;20039;-78
2024/01/30 01:15:11;;;;;;;42.03;26.38;;;5.90;99.90;;;;;;5135387;27;20134;-78
2024/01/30 01:17:38;;;;;;;44.30;28.05;;;5.90;99.90;;;;;;5135191;27;20054;-78
2024/01/30 01:20:06;;;;;;;43.50;27.35;;;5.90;99.90;;;;;;5134948;27;20074;-78
2024/01/30 01:22:32;;;;;;;43.40;27.20;;;5.80;99.90;;;;;;5134141;27;20045;-78
2024/01/30 01:24:58;;;;;;;46.88;28.75;;;5.80;99.90;;;;;;5133960;27;20039;-78
2024/01/30 01:27:24;;;;;;;40.92;26.25;;;5.80;99.90;;;;;;5133751;27;20078;-78
2024/01/30 01:29:50;;;;;;;40.97;26.65;;;5.80;99.90;;;;;;5133647;27;20046;-78
2024/01/30 01:32:16;;;;;;;46.83;28.17;;;5.90;99.90;;;;;;5133924;27;20118;-78
2024/01/30 01:34:42;;;;;;;44.63;28.25;;;5.80;99.90;;;;;;5133629;27;20058;-79
2024/01/30 01:37:07;;;;;;;43.50;26.70;;;5.80;99.90;;;;;;5133655;27;20050;-79
2024/01/30 01:39:33;;;;;;;46.95;27.88;;;5.80;99.90;;;;;;5133286;27;20040;-79
2024/01/30 01:42:01;;;;;;;47.72;28.80;;;5.80;99.90;;;;;;5133545;27;20039;-78
2024/01/30 01:44:27;;;;;;;43.38;27.13;;;5.70;99.90;;;;;;5133726;27;20047;-78
2024/01/30 01:46:54;;;;;;;43.13;28.17;;;5.80;99.90;;;;;;5133513;27;20367;-78
2024/01/30 01:49:21;;;;;;;43.30;26.42;;;5.80;99.90;;;;;;5133624;27;20046;-79
2024/01/30 01:51:48;;;;;;;47.22;27.98;;;5.80;99.90;;;;;;5134707;27;20153;-78
2024/01/30 01:54:15;;;;;;;43.13;26.02;;;5.80;99.90;;;;;;5133310;27;20058;-78
2024/01/30 01:56:43;;;;;;;44.40;26.92;;;5.80;99.90;;;;;;5133622;27;20043;-78
2024/01/30 01:59:09;;;;;;;43.67;26.25;;;5.70;99.90;;;;;;5135721;27;20055;-78
2024/01/30 02:01:40;;;;;;;41.80;27.13;;;5.70;99.90;;;;;;5136839;27;20054;-79
2024/01/30 02:04:07;;;;;;;41.53;27.02;;;5.80;99.90;;;;;;5137050;27;20060;-78
2024/01/30 02:06:34;;;;;;;49.83;27.98;;;5.80;99.90;;;;;;5136633;27;20482;-78
2024/01/30 02:09:00;;;;;;;47.65;28.00;;;5.80;99.90;;;;;;5136586;27;20043;-78
2024/01/30 02:11:32;;;;;;;43.22;26.45;;;5.90;99.90;;;;;;5136760;27;20043;-79
2024/01/30 02:14:03;;;;;;;42.08;26.40;;;5.90;99.90;;;;;;5136974;27;20076;-79
2024/01/30 02:16:32;;;;;;;48.25;29.58;;;5.80;99.90;;;;;;5130345;27;20051;-78
2024/01/30 02:19:00;;;;;;;46.30;28.13;;;5.90;99.90;;;;;;5136771;27;20043;-79
2024/01/30 02:21:26;;;;;;;47.15;27.85;;;5.90;99.90;;;;;;5138108;27;20035;-78
2024/01/30 02:23:54;;;;;;;45.83;27.08;;;5.80;99.90;;;;;;5140863;27;20039;-78
2024/01/30 02:26:29;;;;;;;49.28;27.50;;;5.80;99.90;;;;;;5140910;27;20460;-79
2024/01/30 02:28:55;;;;;;;45.53;26.85;;;5.90;99.90;;;;;;5159094;27;20568;-78
2024/01/30 02:31:20;;;;;;;47.63;28.70;;;5.90;99.90;;;;;;5140722;27;20122;-78
2024/01/30 02:33:46;;;;;;;44.90;27.90;;;5.90;99.90;;;;;;5140452;27;20050;-78
2024/01/30 02:36:11;;;;;;;43.88;27.17;;;6.00;99.90;;;;;;5140534;27;20038;-78
2024/01/30 02:38:37;;;;;;;44.15;28.10;;;5.90;99.90;;;;;;5140714;27;20042;-78
2024/01/30 02:41:03;;;;;;;45.85;26.48;;;6.00;99.90;;;;;;5140340;27;20038;-78
2024/01/30 02:43:28;;;;;;;47.92;27.83;;;6.00;99.90;;;;;;5158942;27;20042;-78
2024/01/30 02:45:54;;;;;;;45.97;27.70;;;6.00;99.90;;;;;;5140491;27;20042;-79
2024/01/30 02:48:19;;;;;;;44.90;26.38;;;6.00;99.90;;;;;;5140206;27;20119;-79
2024/01/30 02:50:46;;;;;;;41.78;26.15;;;6.00;99.90;;;;;;5140436;27;20058;-79
2024/01/30 02:53:12;;;;;;;49.55;28.05;;;6.00;99.90;;;;;;5140399;27;20397;-79
2024/01/30 02:55:38;;;;;;;43.08;28.23;;;6.00;99.90;;;;;;5140416;27;20051;-79
2024/01/30 02:58:03;;;;;;;46.35;26.35;;;5.90;99.90;;;;;;5140196;27;20375;-79
2024/01/30 03:00:29;;;;;;;43.35;28.23;;;6.00;99.90;;;;;;5139764;27;20196;-79
2024/01/30 03:03:01;;;;;;;43.95;26.20;;;5.90;99.90;;;;;;5139943;27;20058;-79
2024/01/30 03:05:27;;;;;;;49.40;27.17;;;5.90;99.90;;;;;;5139807;27;20481;-79
2024/01/30 03:07:53;;;;;;;46.33;27.75;;;5.90;99.90;;;;;;5140041;27;20043;-78
2024/01/30 03:10:18;;;;;;;48.20;29.17;;;5.90;99.90;;;;;;5140091;27;20398;-79
2024/01/30 03:12:44;;;;;;;45.10;26.75;;;5.90;99.90;;;;;;5158440;27;20397;-79
2024/01/30 03:15:09;;;;;;;41.50;26.92;;;5.90;99.90;;;;;;5157482;27;20454;-79
2024/01/30 03:17:36;;;;;;;44.05;26.65;;;5.90;99.90;;;;;;5139534;27;20042;-79
2024/01/30 03:20:03;;;;;;;42.90;26.23;;;5.90;99.90;;;;;;5139465;27;20489;-79
2024/01/30 03:22:29;;;;;;;42.38;28.02;;;5.90;99.90;;;;;;5158280;27;20045;-79
2024/01/30 03:24:55;;;;;;;43.63;27.48;;;5.90;99.90;;;;;;5139626;27;20051;-79
2024/01/30 03:27:20;;;;;;;45.92;26.80;;;5.90;99.90;;;;;;5139597;27;20078;-78
2024/01/30 03:29:46;;;;;;;42.70;28.13;;;5.90;99.90;;;;;;5139851;27;20130;-78
2024/01/30 03:32:11;;;;;;;46.05;26.70;;;5.80;99.90;;;;;;5138895;27;20035;-78
2024/01/30 03:34:37;;;;;;;45.92;25.98;;;5.80;99.90;;;;;;5139359;27;20051;-79
2024/01/30 03:37:06;;;;;;;44.67;27.02;;;5.80;99.90;;;;;;5158233;27;20047;-79
2024/01/30 03:39:31;;;;;;;42.95;26.33;;;5.80;99.90;;;;;;5139285;27;20039;-78
2024/01/30 03:41:57;;;;;;;49.13;30.05;;;5.80;99.90;;;;;;5139334;27;20049;-79
2024/01/30 03:44:26;;;;;;;45.53;27.95;;;5.80;99.90;;;;;;5139364;27;20035;-79
2024/01/30 03:46:51;;;;;;;46.58;27.10;;;5.80;99.90;;;;;;5139394;27;20066;-78
2024/01/30 03:49:17;;;;;;;45.85;26.13;;;5.80;99.90;;;;;;5139056;27;20478;-79
2024/01/30 03:51:43;;;;;;;43.58;25.83;;;5.80;99.90;;;;;;5139088;27;20042;-79
2024/01/30 03:54:08;;;;;;;48.85;27.05;;;5.80;99.90;;;;;;5139132;27;20050;-79
2024/01/30 03:56:34;;;;;;;46.13;26.23;;;5.80;99.90;;;;;;5139371;27;20042;-79
2024/01/30 03:59:00;;;;;;;41.88;24.58;;;5.80;99.90;;;;;;5138552;27;20450;-79
2024/01/30 04:01:27;;;;;;;46.20;26.92;;;5.80;99.90;;;;;;5138959;27;20129;-79
2024/01/30 04:03:53;;;;;;;45.08;27.30;;;5.80;99.90;;;;;;5138903;27;20045;-78
2024/01/30 04:06:21;;;;;;;45.35;27.92;;;5.80;99.90;;;;;;5138915;27;20046;-78
2024/01/30 04:08:50;;;;;;;43.85;27.67;;;5.80;99.90;;;;;;5138794;27;20070;-79
2024/01/30 04:11:19;;;;;;;47.80;27.30;;;5.80;99.90;;;;;;5138551;27;20078;-79
2024/01/30 04:13:46;;;;;;;41.03;25.77;;;5.80;99.90;;;;;;5138711;27;20542;-79
2024/01/30 04:16:22;;;;;;;41.67;26.77;;;5.80;99.90;;;;;;5138957;27;20043;-78
2024/01/30 04:18:48;;;;;;;42.88;26.27;;;5.90;99.90;;;;;;5157023;27;20383;-78
2024/01/30 04:21:14;;;;;;;44.75;27.13;;;5.90;99.90;;;;;;5138500;27;20075;-78
2024/01/30 04:23:42;;;;;;;44.47;27.38;;;5.90;99.90;;;;;;5138203;27;20099;-78
2024/01/30 04:26:08;;;;;;;44.92;26.15;;;6.00;99.90;;;;;;5138431;27;20050;-78
2024/01/30 04:28:33;;;;;;;48.35;27.33;;;6.00;99.90;;;;;;5138221;27;20046;-78
2024/01/30 04:30:59;;;;;;;44.10;26.60;;;6.00;99.90;;;;;;5138530;27;20041;-78
2024/01/30 04:33:25;;;;;;;42.90;26.70;;;6.00;99.90;;;;;;5138258;27;20115;-78
2024/01/30 04:35:51;;;;;;;45.20;27.55;;;6.00;99.90;;;;;;5138238;27;20042;-78
2024/01/30 04:38:17;;;;;;;45.85;27.27;;;6.00;99.90;;;;;;5138013;27;20107;-78
2024/01/30 04:40:43;;;;;;;43.47;27.85;;;6.10;99.90;;;;;;5137746;27;20043;-78
2024/01/30 04:43:12;;;;;;;46.92;27.52;;;6.10;99.90;;;;;;5137385;27;20045;-78
2024/01/30 04:45:37;;;;;;;45.47;27.13;;;6.10;99.90;;;;;;5137597;27;20074;-78
2024/01/30 04:48:03;;;;;;;45.55;27.08;;;6.10;99.90;;;;;;5138055;27;20043;-78
2024/01/30 04:50:29;;;;;;;42.08;26.67;;;6.10;99.90;;;;;;5137855;27;20043;-78
2024/01/30 04:52:55;;;;;;;44.50;25.67;;;6.20;99.90;;;;;;5138078;27;20115;-78
2024/01/30 04:55:21;;;;;;;42.50;27.20;;;6.20;99.90;;;;;;5137738;27;20398;-78
2024/01/30 04:57:46;;;;;;;37.00;24.00;;;6.20;99.90;;;;;;5138412;27;20038;-78
2024/01/30 05:00:12;;;;;;;38.13;25.58;;;6.20;99.90;;;;;;5155996;27;20047;-78
2024/01/30 05:02:48;;;;;;;36.05;22.40;;;6.30;99.90;;;;;;5137570;27;20078;-78
2024/01/30 05:05:14;;;;;;;44.53;25.73;;;6.30;99.90;;;;;;5137962;27;20137;-78
2024/01/30 05:07:43;;;;;;;42.45;25.88;;;6.30;99.90;;;;;;5137614;27;20046;-78
2024/01/30 05:10:09;;;;;;;39.88;25.02;;;6.30;99.90;;;;;;5137705;27;20069;-78
2024/01/30 05:12:34;;;;;;;41.03;25.45;;;6.30;99.90;;;;;;5137324;27;20047;-78
2024/01/30 05:15:02;;;;;;;41.28;25.90;;;6.30;99.90;;;;;;5137447;27;20049;-78
2024/01/30 05:17:28;;;;;;;41.90;25.48;;;6.30;99.90;;;;;;5137564;27;20046;-78
2024/01/30 05:19:53;;;;;;;40.00;23.65;;;6.30;99.90;;;;;;5137159;27;20053;-78
2024/01/30 05:22:19;;;;;;;39.13;24.38;;;6.30;99.90;;;;;;5137493;27;20053;-78
2024/01/30 05:24:45;;;;;;;42.63;25.17;;;6.30;99.90;;;;;;5137446;27;20519;-78
2024/01/30 05:27:13;;;;;;;37.67;23.08;;;6.30;99.90;;;;;;5137082;27;20039;-78
2024/01/30 05:29:39;;;;;;;37.80;24.10;;;6.30;99.90;;;;;;5137351;27;20088;-78
2024/01/30 05:32:05;;;;;;;38.67;24.50;;;6.40;99.90;;;;;;5137175;27;20042;-78
2024/01/30 05:34:35;;;;;;;39.72;24.73;;;6.40;99.90;;;;;;5137108;27;20489;-78
2024/01/30 05:37:01;;;;;;;40.72;22.63;;;6.40;99.90;;;;;;5136977;27;20091;-78
2024/01/30 05:39:32;;;;;;;37.22;24.58;;;6.40;99.90;;;;;;5136822;27;20042;-78
2024/01/30 05:41:58;;;;;;;38.83;23.30;;;6.40;99.90;;;;;;5137285;27;20042;-78
2024/01/30 05:44:24;;;;;;;37.20;22.60;;;6.40;99.90;;;;;;5137248;27;20393;-78
2024/01/30 05:46:49;;;;;;;38.42;23.10;;;6.40;99.90;;;;;;5137349;27;20371;-78
2024/01/30 05:49:15;;;;;;;35.25;22.77;;;6.40;99.90;;;;;;5136878;27;20099;-78
2024/01/30 05:51:41;;;;;;;38.13;22.77;;;6.40;99.90;;;;;;5137054;27;20058;-78
2024/01/30 05:54:09;;;;;;;35.35;22.20;;;6.40;99.90;;;;;;5136906;27;20378;-78
2024/01/30 05:56:34;;;;;;;35.95;21.40;;;6.50;99.90;;;;;;5136775;27;20653;-78
2024/01/30 05:59:00;;;;;;;33.60;21.98;;;6.50;99.90;;;;;;5136575;27;20042;-79
2024/01/30 06:01:26;;;;;;;39.05;23.15;;;6.50;99.90;;;;;;5136819;27;20059;-78
2024/01/30 06:03:51;;;;;;;38.45;22.10;;;6.50;99.90;;;;;;5136851;27;20042;-78
2024/01/30 06:06:17;;;;;;;37.08;21.85;;;6.50;99.90;;;;;;5136649;27;20049;-78
2024/01/30 06:08:42;;;;;;;35.03;21.83;;;6.50;99.90;;;;;;5136902;27;20074;-78
2024/01/30 06:11:11;;;;;;;33.90;21.95;;;6.50;99.90;;;;;;5155286;27;20043;-78
2024/01/30 06:13:36;;;;;;;34.70;21.90;;;6.50;99.90;;;;;;5136491;27;20084;-78
2024/01/30 06:16:02;;;;;;;37.42;22.10;;;6.50;99.90;;;;;;5155310;27;20042;-78
2024/01/30 06:18:30;;;;;;;34.00;20.30;;;6.60;99.90;;;;;;5136719;27;20474;-78
2024/01/30 06:20:56;;;;;;;32.00;20.58;;;6.60;99.90;;;;;;5136361;27;20061;-78
2024/01/30 06:23:21;;;;;;;35.92;22.10;;;6.60;99.90;;;;;;5136511;27;20043;-78
2024/01/30 06:25:47;;;;;;;33.08;21.85;;;6.60;99.90;;;;;;5136825;27;20066;-78
2024/01/30 06:28:12;;;;;;;35.80;20.45;;;6.60;99.90;;;;;;5136659;27;20049;-79
2024/01/30 06:30:38;;;;;;;35.72;20.85;;;6.60;99.90;;;;;;5136388;27;20069;-78
2024/01/30 06:33:04;;;;;;;35.65;19.60;;;6.60;99.90;;;;;;5136838;27;20041;-79
2024/01/30 06:35:30;;;;;;;32.65;21.13;;;6.60;99.90;;;;;;5136195;27;20413;-79
2024/01/30 06:37:55;;;;;;;34.88;19.98;;;6.60;99.90;;;;;;5136316;27;20076;-79
2024/01/30 06:40:21;;;;;;;32.00;21.17;;;6.60;99.90;;;;;;5154847;27;20087;-79
2024/01/30 06:42:46;;;;;;;28.00;19.00;;;6.70;99.90;;;;;;5136390;27;20091;-79
2024/01/30 06:45:12;;;;;;;30.55;19.27;;;6.70;99.90;;;;;;5154927;27;20043;-79
2024/01/30 06:47:38;;;;;;;35.47;21.10;;;6.70;99.90;;;;;;5154880;27;20092;-78
2024/01/30 06:50:04;;;;;;;34.72;20.08;;;6.70;99.90;;;;;;5136197;27;20082;-79
2024/01/30 06:52:29;;;;;;;28.83;18.70;;;6.70;99.90;;;;;;5136483;27;20049;-79
2024/01/30 06:54:55;;;;;;;29.65;19.45;;;6.70;99.90;;;;;;5136118;27;20038;-79
2024/01/30 06:57:20;;;;;;;29.98;19.30;;;6.70;99.90;;;;;;5136692;27;20074;-79
2024/01/30 06:59:46;;;;;;;34.22;20.90;;;6.80;99.90;;;;;;5132560;28;20490;-79
2024/01/30 07:02:14;;;;;;;32.83;20.10;;;6.80;99.90;;;;;;5132717;28;20469;-78
2024/01/30 07:04:40;;;;;;;31.90;18.88;;;6.70;99.90;;;;;;5132613;28;20099;-78
2024/01/30 07:07:11;;;;;;;29.27;18.52;;;6.80;99.90;;;;;;5133809;27;20486;-78
2024/01/30 07:09:40;;;;;;;28.92;17.80;;;6.70;99.90;;;;;;5136790;27;20039;-79
2024/01/30 07:12:06;;;;;;;30.95;18.23;;;6.70;99.90;;;;;;5137768;27;20047;-79
2024/01/30 07:14:32;;;;;;;31.23;19.17;;;6.80;99.90;;;;;;5136296;27;20390;-79
2024/01/30 07:16:58;;;;;;;30.20;18.88;;;6.80;99.90;;;;;;5136226;27;20139;-79
2024/01/30 07:19:29;;;;;;;29.85;18.30;;;6.80;99.90;;;;;;5136326;27;20051;-79
2024/01/30 07:21:55;;;;;;;30.80;18.80;;;6.80;99.90;;;;;;5137643;27;20042;-79
2024/01/30 07:24:20;;;;;;;34.25;20.25;;;6.90;99.90;;;;;;5137413;27;20043;-79
2024/01/30 07:26:49;;;;;;;31.25;19.20;;;6.90;99.90;;;;;;5137504;27;20084;-79
2024/01/30 07:29:15;;;;;;;31.05;19.27;;;6.90;99.90;;;;;;5137185;27;20039;-79
2024/01/30 07:31:40;;;;;;;29.35;19.23;;;6.90;99.90;;;;;;5135058;27;20042;-79
2024/01/30 07:34:06;;;;;;;29.58;19.55;;;7.00;99.90;;;;;;5135608;27;20134;-79
2024/01/30 07:36:31;;;;;;;38.95;21.40;;;7.00;99.90;;;;;;5137271;27;20042;-79
2024/01/30 07:38:57;;;;;;;31.98;20.20;;;7.00;99.90;;;;;;5135721;27;20035;-78
2024/01/30 07:41:25;;;;;;;31.90;20.42;;;7.00;99.90;;;;;;5135711;27;20058;-78
2024/01/30 07:43:50;;;;;;;32.47;19.23;;;7.10;99.90;;;;;;5135664;27;20039;-79
2024/01/30 07:46:16;;;;;;;31.10;18.73;;;7.20;99.90;;;;;;5135607;27;20054;-79
2024/01/30 07:48:42;;;;;;;29.13;18.45;;;7.20;99.90;;;;;;5135837;27;20046;-80
2024/01/30 07:51:07;;;;;;;30.30;20.10;;;7.20;99.90;;;;;;5134551;27;20455;-82
2024/01/30 07:53:33;;;;;;;31.23;19.60;;;7.40;99.90;;;;;;5125928;27;20443;-78
2024/01/30 07:55:59;;;;;;;30.90;17.90;;;7.40;99.90;;;;;;5114698;28;20044;-77
2024/01/30 07:58:27;;;;;;;31.85;20.40;;;7.50;99.90;;;;;;5114750;28;20144;-78
2024/01/30 08:00:53;;;;;;;29.33;18.65;;;7.50;99.90;;;;;;5114288;28;20549;-79
2024/01/30 08:03:19;;;;;;;30.50;18.70;;;7.60;99.90;;;;;;5114477;28;20047;-82
2024/01/30 08:05:47;;;;;;;29.65;17.75;;;7.60;99.90;;;;;;5114350;28;20047;-79
2024/01/30 08:08:13;;;;;;;30.55;18.67;;;7.60;99.90;;;;;;5114584;28;20475;-79
2024/01/30 08:10:39;;;;;;;28.48;15.75;;;7.60;99.90;;;;;;5114399;28;20139;-79
2024/01/30 08:13:04;;;;;;;28.50;17.15;;;7.60;99.90;;;;;;5114588;28;20079;-79
2024/01/30 08:15:30;;;;;;;27.33;16.85;;;7.70;99.90;;;;;;5115692;28;20046;-79
2024/01/30 08:17:57;;;;;;;30.75;17.20;;;7.70;99.90;;;;;;5114224;28;20482;-79
2024/01/30 08:20:24;;;;;;;24.27;16.13;;;7.80;99.90;;;;;;5114198;28;20043;-78
2024/01/30 08:22:50;;;;;;;27.40;16.05;;;7.70;99.90;;;;;;5114365;28;20131;-78
2024/01/30 08:25:15;;;;;;;29.40;16.08;;;7.80;99.90;;;;;;5115327;28;20134;-79
2024/01/30 08:27:41;;;;;;;24.33;15.88;;;7.90;99.90;;;;;;5115522;28;20082;-78
2024/01/30 08:30:07;;;;;;;31.73;18.00;;;7.90;99.90;;;;;;5113954;28;20047;-78
2024/01/30 08:32:33;;;;;;;28.50;16.95;;;7.90;99.90;;;;;;5113984;28;20055;-80
2024/01/30 08:34:59;;;;;;;29.73;17.40;;;7.90;99.90;;;;;;5115037;28;20047;-78
2024/01/30 08:37:25;;;;;;;30.60;16.17;;;8.00;99.90;;;;;;5113836;28;20100;-78
2024/01/30 08:39:51;;;;;;;26.70;16.90;;;8.10;99.90;;;;;;5113781;28;20043;-78
2024/01/30 08:42:22;;;;;;;26.52;15.95;;;8.00;99.90;;;;;;5113762;28;20044;-79
2024/01/30 08:45:39;;;;;;;24.77;16.17;;;8.10;99.90;;;;;;5116301;22;20040;-77
2024/01/30 08:48:14;;;;;;;26.60;15.90;;;8.10;99.90;;;;;;5009571;28;20088;-79
2024/01/30 08:50:40;;;;;;;24.40;14.43;;;8.10;99.90;;;;;;5075788;28;20088;-79
2024/01/30 08:53:09;;;;;;;24.42;15.52;;;8.10;99.90;;;;;;5076557;28;20044;-84
2024/01/30 08:55:34;;;;;;;24.90;15.15;;;8.10;99.90;;;;;;5076493;28;20052;-78
2024/01/30 08:58:00;;;;;;;27.73;17.20;;;8.10;99.90;;;;;;5094162;28;20402;-79
2024/01/30 09:00:26;;;;;;;26.35;15.93;;;8.20;99.90;;;;;;5094363;28;20399;-79
2024/01/30 09:02:51;;;;;;;25.52;15.60;;;8.10;99.90;;;;;;5075941;28;20048;-79
2024/01/30 09:05:17;;;;;;;28.05;15.10;;;8.20;99.90;;;;;;5075686;28;20040;-77
2024/01/30 09:07:43;;;;;;;28.48;15.95;;;8.20;99.90;;;;;;5084586;28;20048;-78
2024/01/30 09:10:08;;;;;;;26.73;16.73;;;8.30;99.90;;;;;;5065123;28;20487;-78
2024/01/30 09:12:34;;;;;;;25.35;15.45;;;8.30;99.90;;;;;;5090792;28;20046;-78
2024/01/30 09:14:59;;;;;;;26.42;15.15;;;8.40;99.90;;;;;;5094271;28;20036;-79
2024/01/30 09:17:25;;;;;;;24.38;15.13;;;8.40;99.90;;;;;;5075697;28;20050;-79
2024/01/30 09:19:51;;;;;;;24.50;14.98;;;8.40;99.90;;;;;;5075942;28;20101;-79
2024/01/30 09:22:16;;;;;;;27.90;15.50;;;8.40;99.90;;;;;;5091756;28;20040;-78
2024/01/30 09:24:42;;;;;;;25.45;15.68;;;8.40;99.90;;;;;;5092303;28;20119;-78
2024/01/30 09:27:08;;;;;;;28.50;17.05;;;8.50;99.90;;;;;;5076593;28;20506;-78
2024/01/30 09:29:36;;;;;;;25.75;15.23;;;8.50;99.90;;;;;;5075139;28;20467;-77
2024/01/30 09:32:01;;;;;;;26.90;14.38;;;8.50;99.90;;;;;;5093781;28;20055;-79
2024/01/30 09:34:27;;;;;;;27.23;15.68;;;8.50;99.90;;;;;;5075591;28;20043;-78
2024/01/30 09:36:53;;;;;;;28.60;15.63;;;8.50;99.90;;;;;;5093568;28;20040;-78
2024/01/30 09:39:21;;;;;;;25.42;15.50;;;8.50;99.90;;;;;;5092237;28;20040;-78
2024/01/30 09:41:51;;;;;;;24.08;15.77;;;8.60;99.90;;;;;;5075457;28;20128;-78
2024/01/30 09:44:19;;;;;;;29.92;15.13;;;8.60;99.90;;;;;;5075782;28;20265;-78
2024/01/30 09:46:49;;;;;;;25.35;15.60;;;8.70;99.90;;;;;;5075175;28;20051;-78
2024/01/30 09:49:18;;;;;;;23.52;15.68;;;8.60;99.90;;;;;;5074773;28;20059;-78
2024/01/30 09:51:45;;;;;;;28.50;16.38;;;8.60;99.90;;;;;;5093695;28;20055;-79
2024/01/30 09:54:14;;;;;;;28.63;15.27;;;8.70;99.90;;;;;;5075350;28;20048;-79
2024/01/30 09:56:39;;;;;;;22.38;13.45;;;8.70;99.90;;;;;;5092453;28;20067;-78
2024/01/30 09:59:05;;;;;;;28.35;15.95;;;8.80;99.90;;;;;;5093368;28;20136;-79
2024/01/30 10:01:33;;;;;;;23.83;15.52;;;8.80;99.90;;;;;;5093492;28;20169;-79
2024/01/30 10:03:59;;;;;;;29.88;16.35;;;8.80;99.90;;;;;;5093290;28;20483;-79
2024/01/30 10:06:24;;;;;;;24.60;13.95;;;8.80;99.90;;;;;;5093615;28;20048;-79
2024/01/30 10:08:50;;;;;;;24.40;15.85;;;8.90;99.90;;;;;;5093218;28;20559;-79
2024/01/30 10:11:16;;;;;;;22.80;15.13;;;8.90;99.90;;;;;;5093504;28;20071;-78
2024/01/30 10:13:41;;;;;;;28.35;15.95;;;8.80;99.90;;;;;;5073977;28;20036;-79
2024/01/30 10:16:07;;;;;;;26.38;15.30;;;8.80;99.90;;;;;;5071236;28;20113;-79
2024/01/30 10:18:33;;;;;;;27.27;15.55;;;8.80;99.90;;;;;;5085074;28;20103;-78
2024/01/30 10:20:59;;;;;;;27.75;15.23;;;8.80;99.90;;;;;;5074990;28;20055;-79
2024/01/30 10:23:24;;;;;;;29.17;15.45;;;8.80;99.90;;;;;;5072902;28;20048;-79
2024/01/30 10:25:52;;;;;;;28.10;15.23;;;8.80;99.90;;;;;;5055026;28;20045;-79
2024/01/30 10:28:17;;;;;;;27.08;14.63;;;8.80;99.90;;;;;;5054933;28;20074;-79
2024/01/30 10:30:43;;;;;;;26.63;13.70;;;8.90;99.90;;;;;;5081705;28;20040;-79
2024/01/30 10:33:09;;;;;;;21.40;12.23;;;9.00;99.90;;;;;;5074964;28;20063;-79
2024/01/30 10:35:35;;;;;;;21.20;12.52;;;9.00;99.90;;;;;;5075161;28;20055;-79
2024/01/30 10:38:00;;;;;;;37.88;14.05;;;9.00;99.90;;;;;;5089223;28;20158;-79
2024/01/30 10:40:29;;;;;;;27.77;13.68;;;9.00;99.90;;;;;;5092894;28;20438;-79
2024/01/30 10:42:56;;;;;;;23.10;12.02;;;9.10;99.90;;;;;;5077003;28;20047;-79
2024/01/30 10:45:22;;;;;;;18.92;11.02;;;9.00;99.90;;;;;;5096816;28;20142;-79
2024/01/30 10:48:02;;;;;;;28.77;11.95;;;9.10;99.90;;;;;;5078584;28;20075;-79
2024/01/30 10:50:30;;;;;;;23.73;10.23;;;9.10;99.90;;;;;;5078659;28;20047;-79
2024/01/30 10:52:59;;;;;;;21.27;11.00;;;9.10;99.90;;;;;;5091355;28;20116;-79
2024/01/30 10:55:28;;;;;;;16.63;9.73;;;9.10;99.90;;;;;;5096593;28;20040;-79
2024/01/30 10:57:53;;;;;;;17.38;9.32;;;9.10;99.90;;;;;;5096591;28;20406;-79
2024/01/30 11:00:23;;;;;;;15.85;8.70;;;9.10;99.90;;;;;;5096418;28;20048;-79
2024/01/30 11:02:49;;;;;;;18.15;7.25;;;9.10;99.90;;;;;;5096850;28;20127;-79
2024/01/30 11:05:23;;;;;;;18.15;6.88;;;9.10;99.90;;;;;;5078285;28;20083;-79
2024/01/30 11:07:48;;;;;;;16.63;7.35;;;9.10;99.90;;;;;;5096752;28;20047;-78
2024/01/30 11:10:15;;;;;;;17.00;7.45;;;9.10;99.90;;;;;;5096410;28;20388;-78
2024/01/30 11:12:42;;;;;;;14.25;6.47;;;9.10;99.90;;;;;;5096655;28;20082;-78
2024/01/30 11:15:10;;;;;;;12.18;5.80;;;9.00;99.90;;;;;;5077952;28;20067;-78
2024/01/30 11:17:47;;;;;;;13.63;5.53;;;9.00;99.90;;;;;;5078080;28;20380;-78
2024/01/30 11:20:21;;;;;;;13.40;5.45;;;9.00;99.90;;;;;;5078146;28;20044;-76
2024/01/30 11:22:50;;;;;;;14.70;4.75;;;9.00;99.90;;;;;;5077981;28;20542;-78
2024/01/30 11:25:17;;;;;;;15.93;5.40;;;9.00;99.90;;;;;;5077968;28;20044;-77
2024/01/30 11:27:44;;;;;;;13.70;4.90;;;8.90;99.90;;;;;;5077915;28;20441;-78
2024/01/30 11:30:11;;;;;;;12.93;5.18;;;8.90;99.90;;;;;;5077821;28;20048;-78
2024/01/30 11:32:37;;;;;;;14.82;4.75;;;8.90;99.90;;;;;;5078081;28;20583;-79
2024/01/30 11:35:06;;;;;;;11.10;4.85;;;8.90;99.90;;;;;;5077683;28;20040;-78
2024/01/30 11:37:36;;;;;;;12.13;4.22;;;8.90;99.90;;;;;;5078001;28;20127;-79
2024/01/30 11:40:03;;;;;;;9.82;3.53;;;8.90;99.90;;;;;;5095056;28;20040;-77
2024/01/30 11:42:30;;;;;;;10.85;3.63;;;8.90;99.90;;;;;;5096067;28;20113;-78
2024/01/30 11:44:56;;;;;;;11.65;3.40;;;9.00;99.90;;;;;;5077677;28;20055;-77
2024/01/30 11:47:22;;;;;;;7.55;3.33;;;9.00;99.90;;;;;;5096007;28;20048;-78
2024/01/30 11:49:48;;;;;;;11.45;2.50;;;8.90;99.90;;;;;;5095618;28;20056;-79
2024/01/30 11:52:14;;;;;;;8.25;2.20;;;9.00;99.90;;;;;;5077457;28;20457;-77
2024/01/30 11:54:40;;;;;;;6.93;2.03;;;9.00;99.90;;;;;;5077046;28;20044;-78
2024/01/30 11:57:05;;;;;;;8.88;2.33;;;9.00;99.90;;;;;;5077363;28;20048;-78
2024/01/30 11:59:31;;;;;;;10.32;2.20;;;9.00;99.90;;;;;;5077622;28;20044;-79
2024/01/30 12:01:59;;;;;;;9.13;2.55;;;9.00;99.90;;;;;;5077577;28;20040;-77
2024/01/30 12:04:29;;;;;;;7.88;2.28;;;9.00;99.90;;;;;;5077565;28;20044;-77
2024/01/30 12:06:55;;;;;;;9.38;2.35;;;9.00;99.90;;;;;;5077363;28;20055;-77
2024/01/30 12:09:21;;;;;;;14.85;2.92;;;9.00;99.90;;;;;;5077107;28;20054;-76
2024/01/30 12:11:49;;;;;;;26.20;5.05;;;8.90;99.90;;;;;;5076991;28;20102;-77
2024/01/30 12:14:16;;;;;;;4.43;1.30;;;8.90;99.90;;;;;;5095456;28;20040;-78
2024/01/30 12:16:41;;;;;;;6.30;1.85;;;8.80;99.90;;;;;;5076934;28;20131;-78
2024/01/30 12:19:07;;;;;;;2.67;1.25;;;8.80;99.90;;;;;;5076929;28;20140;-78
2024/01/30 12:21:34;;;;;;;7.50;1.65;;;8.80;99.90;;;;;;5076746;28;20044;-78
2024/01/30 12:24:00;;;;;;;6.85;1.60;;;8.80;99.90;;;;;;5077116;28;20535;-79
2024/01/30 12:26:26;;;;;;;6.22;1.83;;;8.80;99.90;;;;;;5073797;28;20064;-79
2024/01/30 12:28:57;;;;;;;7.13;1.75;;;8.70;99.90;;;;;;5065597;28;20553;-79
2024/01/30 12:31:32;;;;;;;6.90;2.30;;;8.80;99.90;;;;;;5065482;28;20510;-79
2024/01/30 12:33:59;;;;;;;4.38;1.48;;;8.80;99.90;;;;;;5066168;28;20047;-79
2024/01/30 12:36:25;;;;;;;9.85;2.53;;;8.80;99.90;;;;;;5068069;28;20040;-79